createdAt,value
2022-08-08T00:00:53.598Z,19.69
2022-08-08T00:02:33.202Z,19.62
2022-08-08T00:05:12.710Z,19.65
2022-08-08T00:07:53.535Z,19.72
2022-08-08T00:10:33.118Z,19.74
2022-08-08T00:13:10.576Z,19.85
2022-08-08T00:15:56.470Z,19.95
2022-08-08T00:18:37.729Z,20.04
2022-08-08T00:21:08.042Z,20.13
2022-08-08T00:23:47.800Z,19.55
2022-08-08T00:26:30.909Z,19.33
2022-08-08T00:29:10.412Z,19.07
2022-08-08T00:32:20.005Z,19.07
2022-08-08T00:35:15.352Z,19.09
2022-08-08T00:38:06.491Z,18.98
2022-08-08T00:41:12.737Z,18.94
2022-08-08T00:44:09.848Z,18.90
2022-08-08T00:47:24.001Z,18.86
2022-08-08T00:50:48.285Z,18.72
2022-08-08T00:53:57.103Z,18.57
2022-08-08T00:57:40.624Z,18.61
2022-08-08T01:00:19.275Z,18.69
2022-08-08T01:04:02.546Z,18.75
2022-08-08T01:07:18.706Z,18.76
2022-08-08T01:10:29.687Z,18.76
2022-08-08T01:14:03.515Z,18.66
2022-08-08T01:17:53.245Z,18.71
2022-08-08T01:20:57.407Z,18.60
2022-08-08T01:24:31.711Z,18.64
2022-08-08T01:28:06.479Z,18.58
2022-08-08T01:32:13.074Z,18.52
2022-08-08T01:35:12.553Z,18.44
2022-08-08T01:38:31.844Z,18.43
2022-08-08T01:41:11.685Z,18.37
2022-08-08T01:43:53.453Z,18.30
2022-08-08T01:46:53.813Z,18.18
2022-08-08T01:49:45.172Z,18.26
2022-08-08T01:52:54.473Z,18.25
2022-08-08T01:56:26.537Z,18.02
2022-08-08T01:58:46.931Z,18.25
2022-08-08T02:02:00.060Z,18.26
2022-08-08T02:04:34.495Z,18.22
2022-08-08T02:07:10.039Z,18.13
2022-08-08T02:10:11.383Z,18.08
2022-08-08T02:12:52.981Z,18.11
2022-08-08T02:15:38.670Z,18.21
2022-08-08T02:18:14.632Z,18.20
2022-08-08T02:21:08.551Z,18.15
2022-08-08T02:23:47.929Z,18.03
2022-08-08T02:26:29.308Z,18.13
2022-08-08T02:29:26.288Z,18.20
2022-08-08T02:32:29.659Z,18.28
2022-08-08T02:36:02.506Z,18.26
2022-08-08T02:38:49.133Z,18.32
2022-08-08T02:41:58.592Z,18.42
2022-08-08T02:45:21.267Z,18.43
2022-08-08T02:48:37.279Z,18.27
2022-08-08T02:52:00.373Z,18.24
2022-08-08T02:55:36.552Z,18.22
2022-08-08T02:59:02.996Z,18.24
2022-08-08T03:02:47.648Z,18.31
2022-08-08T03:06:24.144Z,18.35
2022-08-08T03:10:03.948Z,17.77
2022-08-08T03:13:07.433Z,17.47
2022-08-08T03:16:35.525Z,17.45
2022-08-08T03:19:51.128Z,17.49
2022-08-08T03:22:38.233Z,17.09
2022-08-08T03:25:17.935Z,17.40
2022-08-08T03:27:56.278Z,17.48
2022-08-08T03:30:26.103Z,17.50
2022-08-08T03:33:55.430Z,17.53
2022-08-08T03:36:05.035Z,17.58
2022-08-08T03:38:57.411Z,17.59
2022-08-08T03:42:12.931Z,17.38
2022-08-08T03:44:34.726Z,17.22
2022-08-08T03:47:13.967Z,17.23
2022-08-08T03:49:58.847Z,17.17
2022-08-08T03:52:33.935Z,17.24
2022-08-08T03:55:56.344Z,17.27
2022-08-08T03:58:30.877Z,17.37
2022-08-08T04:01:20.785Z,17.46
2022-08-08T04:03:59.917Z,17.33
2022-08-08T04:06:37.150Z,17.46
2022-08-08T04:09:11.154Z,17.40
2022-08-08T04:11:57.972Z,17.41
2022-08-08T04:14:36.134Z,17.44
2022-08-08T04:17:15.584Z,17.52
2022-08-08T04:19:56.421Z,17.63
2022-08-08T04:22:29.628Z,17.66
2022-08-08T04:24:59.642Z,17.63
2022-08-08T04:28:03.137Z,17.61
2022-08-08T04:30:21.584Z,17.43
2022-08-08T04:32:54.051Z,17.31
2022-08-08T04:35:26.719Z,17.42
2022-08-08T04:37:58.266Z,17.48
2022-08-08T04:40:35.381Z,17.40
2022-08-08T04:43:05.615Z,17.46
2022-08-08T04:45:43.199Z,17.49
2022-08-08T04:48:11.849Z,17.50
2022-08-08T04:50:44.680Z,17.57
2022-08-08T04:54:27.444Z,17.74
2022-08-08T04:56:09.377Z,17.72
2022-08-08T04:58:38.355Z,17.73
2022-08-08T05:01:11.241Z,17.78
2022-08-08T05:04:09.670Z,17.88
2022-08-08T05:06:38.998Z,18.11
2022-08-08T05:09:08.152Z,18.25
2022-08-08T05:11:40.721Z,18.36
2022-08-08T05:14:14.944Z,18.51
2022-08-08T05:17:00.358Z,18.66
2022-08-08T05:20:11.573Z,18.78
2022-08-08T05:22:27.693Z,18.26
2022-08-08T05:24:57.658Z,19.01
2022-08-08T05:27:26.460Z,19.08
2022-08-08T05:30:03.171Z,19.23
2022-08-08T05:32:43.636Z,19.32
2022-08-08T05:35:15.737Z,19.19
2022-08-08T05:37:55.568Z,19.86
2022-08-08T05:40:58.127Z,19.73
2022-08-08T05:43:39.621Z,20.18
2022-08-08T05:46:24.708Z,20.41
2022-08-08T05:48:58.866Z,20.52
2022-08-08T05:51:48.234Z,20.76
2022-08-08T05:54:26.805Z,20.86
2022-08-08T05:57:00.804Z,20.98
2022-08-08T06:00:00.994Z,21.24
2022-08-08T06:03:05.224Z,21.31
2022-08-08T06:05:51.809Z,21.53
2022-08-08T06:08:32.979Z,21.79
2022-08-08T06:11:07.205Z,21.99
2022-08-08T06:13:47.483Z,22.15
2022-08-08T06:16:19.370Z,22.30
2022-08-08T06:19:20.591Z,22.53
2022-08-08T06:21:57.238Z,22.74
2022-08-08T06:24:37.047Z,22.90
2022-08-08T06:27:12.452Z,23.02
2022-08-08T06:30:01.005Z,23.16
2022-08-08T06:32:47.486Z,23.32
2022-08-08T06:36:08.243Z,23.45
2022-08-08T06:38:14.373Z,23.36
2022-08-08T06:40:54.206Z,22.86
2022-08-08T06:43:34.302Z,23.11
2022-08-08T06:46:13.492Z,23.25
2022-08-08T06:48:46.989Z,23.26
2022-08-08T06:51:16.947Z,23.55
2022-08-08T06:53:50.715Z,23.45
2022-08-08T06:56:31.313Z,22.91
2022-08-08T06:59:01.048Z,23.30
2022-08-08T07:02:16.763Z,23.42
2022-08-08T07:04:48.045Z,23.65
2022-08-08T07:07:42.587Z,23.68
2022-08-08T07:10:14.818Z,23.81
2022-08-08T07:12:49.459Z,23.95
2022-08-08T07:16:04.465Z,23.82
2022-08-08T07:18:40.842Z,23.89
2022-08-08T07:21:18.951Z,24.00
2022-08-08T07:24:01.672Z,24.04
2022-08-08T07:26:41.918Z,24.02
2022-08-08T07:29:20.280Z,24.26
2022-08-08T07:32:01.063Z,24.30
2022-08-08T07:34:32.382Z,24.37
2022-08-08T07:37:12.010Z,24.51
2022-08-08T07:39:57.908Z,24.63
2022-08-08T07:42:34.540Z,24.64
2022-08-08T07:45:07.900Z,24.67
2022-08-08T07:47:41.253Z,24.69
2022-08-08T07:50:22.144Z,24.58
2022-08-08T07:52:59.106Z,24.41
2022-08-08T07:55:30.602Z,24.18
2022-08-08T07:58:17.349Z,23.88
2022-08-08T08:00:51.630Z,24.11
2022-08-08T08:03:41.523Z,24.36
2022-08-08T08:06:16.540Z,24.48
2022-08-08T08:08:53.104Z,24.73
2022-08-08T08:11:34.124Z,24.95
2022-08-08T08:14:26.039Z,25.25
2022-08-08T08:16:54.396Z,25.23
2022-08-08T08:19:45.624Z,25.43
2022-08-08T08:22:31.421Z,25.65
2022-08-08T08:25:07.983Z,25.52
2022-08-08T08:27:39.352Z,25.67
2022-08-08T08:30:17.389Z,25.27
2022-08-08T08:32:51.191Z,25.51
2022-08-08T08:35:29.981Z,25.62
2022-08-08T08:38:17.379Z,25.51
2022-08-08T08:40:51.330Z,25.55
2022-08-08T08:43:26.963Z,25.48
2022-08-08T08:46:03.611Z,25.32
2022-08-08T08:48:35.584Z,25.43
2022-08-08T08:51:06.411Z,25.50
2022-08-08T08:53:56.721Z,25.61
2022-08-08T08:56:30.085Z,25.86
2022-08-08T08:59:06.846Z,25.35
2022-08-08T09:01:45.399Z,25.87
2022-08-08T09:04:31.516Z,25.99
2022-08-08T09:07:13.843Z,26.22
2022-08-08T09:09:57.299Z,26.11
2022-08-08T09:12:30.504Z,26.16
2022-08-08T09:15:01.049Z,26.22
2022-08-08T09:17:41.619Z,26.29
2022-08-08T09:22:01.007Z,26.18
2022-08-08T09:23:17.661Z,26.11
2022-08-08T09:25:54.658Z,25.96
2022-08-08T09:28:37.451Z,25.79
2022-08-08T09:31:16.735Z,26.04
2022-08-08T09:34:31.299Z,26.22
2022-08-08T09:37:10.209Z,26.12
2022-08-08T09:39:54.126Z,25.83
2022-08-08T09:42:25.973Z,25.72
2022-08-08T09:45:08.125Z,25.60
2022-08-08T09:48:04.161Z,25.56
2022-08-08T09:50:36.002Z,25.47
2022-08-08T09:53:32.065Z,25.58
2022-08-08T09:56:12.656Z,25.56
2022-08-08T09:58:58.652Z,25.56
2022-08-08T10:01:59.898Z,25.83
2022-08-08T10:04:38.510Z,25.62
2022-08-08T10:07:15.838Z,26.33
2022-08-08T10:10:00.966Z,26.25
2022-08-08T10:12:38.489Z,26.35
2022-08-08T10:15:24.238Z,26.48
2022-08-08T10:18:11.751Z,26.55
2022-08-08T10:20:58.303Z,26.60
2022-08-08T10:23:47.103Z,26.42
2022-08-08T10:26:51.812Z,25.89
2022-08-08T10:29:28.161Z,26.34
2022-08-08T10:32:17.079Z,26.21
2022-08-08T10:34:58.576Z,26.28
2022-08-08T10:37:31.826Z,25.73
2022-08-08T10:40:19.647Z,25.16
2022-08-08T10:42:55.114Z,25.40
2022-08-08T10:45:24.615Z,25.37
2022-08-08T10:47:59.203Z,25.62
2022-08-08T10:50:36.762Z,26.07
2022-08-08T10:53:12.487Z,26.29
2022-08-08T10:55:46.536Z,26.51
2022-08-08T10:58:16.093Z,26.56
2022-08-08T11:00:48.849Z,25.90
2022-08-08T11:04:00.469Z,26.06
2022-08-08T11:06:35.036Z,26.00
2022-08-08T11:09:15.015Z,26.13
2022-08-08T11:12:05.067Z,26.41
2022-08-08T11:14:51.353Z,26.60
2022-08-08T11:18:00.887Z,26.17
2022-08-08T11:20:17.827Z,26.51
2022-08-08T11:22:52.794Z,26.49
2022-08-08T11:25:52.809Z,26.49
2022-08-08T11:28:18.803Z,26.64
2022-08-08T11:30:50.426Z,26.66
2022-08-08T11:33:51.422Z,26.67
2022-08-08T11:36:15.393Z,26.75
2022-08-08T11:38:54.358Z,26.84
2022-08-08T11:41:24.444Z,27.24
2022-08-08T11:43:57.831Z,27.37
2022-08-08T11:46:31.771Z,27.55
2022-08-08T11:49:04.297Z,27.56
2022-08-08T11:51:39.753Z,27.78
2022-08-08T11:54:31.682Z,27.83
2022-08-08T11:57:27.996Z,27.94
2022-08-08T12:00:09.765Z,27.81
2022-08-08T12:02:51.403Z,27.91
2022-08-08T12:05:22.800Z,28.03
2022-08-08T12:07:53.346Z,28.03
2022-08-08T12:10:25.034Z,28.11
2022-08-08T12:13:04.336Z,28.08
2022-08-08T12:15:41.798Z,27.75
2022-08-08T12:18:21.250Z,27.44
2022-08-08T12:20:53.301Z,27.34
2022-08-08T12:23:42.696Z,27.32
2022-08-08T12:26:28.070Z,27.29
2022-08-08T12:29:21.471Z,27.18
2022-08-08T12:32:04.180Z,27.18
2022-08-08T12:34:43.608Z,27.31
2022-08-08T12:37:20.664Z,27.53
2022-08-08T12:40:02.099Z,27.49
2022-08-08T12:42:33.568Z,27.81
2022-08-08T12:45:53.693Z,27.81
2022-08-08T12:48:09.977Z,27.81
2022-08-08T12:50:57.727Z,27.80
2022-08-08T12:53:37.697Z,27.84
2022-08-08T12:56:19.054Z,27.59
2022-08-08T12:58:55.249Z,27.78
2022-08-08T13:01:37.199Z,27.85
2022-08-08T13:04:25.310Z,27.97
2022-08-08T13:07:02.735Z,28.05
2022-08-08T13:10:05.014Z,28.13
2022-08-08T13:12:33.834Z,28.12
2022-08-08T13:15:05.809Z,27.78
2022-08-08T13:17:53.889Z,27.96
2022-08-08T13:20:26.083Z,27.97
2022-08-08T13:23:35.952Z,27.84
2022-08-08T13:25:58.767Z,27.65
2022-08-08T13:28:32.273Z,27.72
2022-08-08T13:31:04.132Z,27.77
2022-08-08T13:33:42.129Z,27.27
2022-08-08T13:36:13.704Z,27.40
2022-08-08T13:38:42.741Z,27.16
2022-08-08T13:41:16.989Z,27.22
2022-08-08T13:43:47.637Z,26.93
2022-08-08T13:46:27.392Z,26.94
2022-08-08T13:49:11.844Z,27.02
2022-08-08T13:51:59.731Z,27.03
2022-08-08T13:54:32.480Z,27.12
2022-08-08T13:57:08.670Z,26.97
2022-08-08T13:59:44.350Z,26.48
2022-08-08T14:02:20.798Z,26.11
2022-08-08T14:05:05.129Z,26.40
2022-08-08T14:07:53.179Z,26.43
2022-08-08T14:10:33.434Z,26.56
2022-08-08T14:13:30.672Z,26.62
2022-08-08T14:16:04.320Z,26.62
2022-08-08T14:18:36.561Z,26.63
2022-08-08T14:21:20.786Z,26.62
2022-08-08T14:24:04.586Z,26.61
2022-08-08T14:26:43.054Z,26.70
2022-08-08T14:29:28.037Z,26.80
2022-08-08T14:32:09.165Z,26.71
2022-08-08T14:34:42.207Z,26.62
2022-08-08T14:37:12.595Z,26.69
2022-08-08T14:39:53.659Z,26.77
2022-08-08T14:42:34.650Z,26.90
2022-08-08T14:45:10.165Z,26.93
2022-08-08T14:47:52.078Z,26.84
2022-08-08T14:50:38.890Z,26.92
2022-08-08T14:53:13.682Z,27.02
2022-08-08T14:55:45.069Z,26.96
2022-08-08T14:58:16.494Z,27.05
2022-08-08T15:00:49.439Z,27.08
2022-08-08T15:03:18.742Z,27.04
2022-08-08T15:05:54.245Z,27.01
2022-08-08T15:08:34.565Z,27.01
2022-08-08T15:11:06.465Z,26.97
2022-08-08T15:13:40.868Z,26.99
2022-08-08T15:16:23.567Z,26.85
2022-08-08T15:18:52.384Z,26.90
2022-08-08T15:21:22.095Z,26.83
2022-08-08T15:23:51.120Z,26.73
2022-08-08T15:26:25.438Z,26.61
2022-08-08T15:28:54.594Z,26.60
2022-08-08T15:31:56.236Z,26.62
2022-08-08T15:34:18.516Z,26.50
2022-08-08T15:36:59.930Z,26.58
2022-08-08T15:39:38.138Z,26.59
2022-08-08T15:42:17.874Z,26.48
2022-08-08T15:44:58.656Z,26.50
2022-08-08T15:47:27.074Z,26.55
2022-08-08T15:49:55.442Z,26.56
2022-08-08T15:52:25.080Z,26.51
2022-08-08T15:54:54.797Z,26.37
2022-08-08T15:57:24.926Z,26.36
2022-08-08T16:00:06.046Z,26.27
2022-08-08T16:02:44.463Z,26.21
2022-08-08T16:05:20.498Z,26.26
2022-08-08T16:07:51.578Z,26.10
2022-08-08T16:13:03.531Z,26.00
2022-08-08T16:13:45.260Z,25.98
2022-08-08T16:16:16.516Z,25.98
2022-08-08T16:18:56.937Z,25.99
2022-08-08T16:21:30.584Z,25.82
2022-08-08T16:24:01.413Z,25.79
2022-08-08T16:26:35.937Z,25.84
2022-08-08T16:29:15.687Z,25.74
2022-08-08T16:31:49.024Z,25.64
2022-08-08T16:34:21.527Z,25.84
2022-08-08T16:36:51.030Z,25.82
2022-08-08T16:39:49.131Z,25.65
2022-08-08T16:42:18.116Z,25.61
2022-08-08T16:44:54.622Z,25.27
2022-08-08T16:47:31.908Z,25.63
2022-08-08T16:50:15.155Z,25.56
2022-08-08T16:55:04.210Z,25.49
2022-08-08T16:55:54.154Z,25.44
2022-08-08T16:58:25.853Z,25.41
2022-08-08T17:00:57.865Z,25.42
2022-08-08T17:03:58.076Z,25.35
2022-08-08T17:06:37.275Z,25.34
2022-08-08T17:09:04.939Z,25.30
2022-08-08T17:11:38.949Z,25.29
2022-08-08T17:14:19.585Z,25.32
2022-08-08T17:16:58.836Z,25.29
2022-08-08T17:19:31.781Z,25.17
2022-08-08T17:22:06.942Z,25.25
2022-08-08T17:24:35.808Z,25.20
2022-08-08T17:27:05.725Z,25.19
2022-08-08T17:29:43.877Z,25.16
2022-08-08T17:32:28.990Z,25.20
2022-08-08T17:35:54.464Z,25.06
2022-08-08T17:37:53.293Z,24.97
2022-08-08T17:40:22.417Z,25.03
2022-08-08T17:42:51.789Z,25.04
2022-08-08T17:45:23.592Z,25.03
2022-08-08T17:47:54.981Z,25.03
2022-08-08T17:50:25.148Z,25.05
2022-08-08T17:52:57.533Z,24.96
2022-08-08T17:56:04.873Z,24.57
2022-08-08T17:58:15.485Z,24.95
2022-08-08T18:00:47.639Z,24.99
2022-08-08T18:03:26.825Z,24.98
2022-08-08T18:05:55.397Z,25.05
2022-08-08T18:08:24.888Z,24.96
2022-08-08T18:11:11.766Z,24.85
2022-08-08T18:13:43.456Z,25.02
2022-08-08T18:16:12.701Z,24.98
2022-08-08T18:18:53.144Z,24.83
2022-08-08T18:22:00.403Z,24.85
2022-08-08T18:24:19.596Z,24.64
2022-08-08T18:26:55.001Z,24.73
2022-08-08T18:29:33.433Z,24.68
2022-08-08T18:32:05.241Z,24.71
2022-08-08T18:34:37.758Z,24.65
2022-08-08T18:37:09.332Z,24.55
2022-08-08T18:39:41.421Z,24.58
2022-08-08T18:42:14.414Z,24.14
2022-08-08T18:44:55.894Z,24.63
2022-08-08T18:47:27.344Z,24.65
2022-08-08T18:50:00.258Z,24.48
2022-08-08T18:52:30.602Z,24.66
2022-08-08T18:55:09.515Z,24.61
2022-08-08T18:57:44.526Z,24.59
2022-08-08T19:00:21.024Z,24.54
2022-08-08T19:03:01.615Z,24.56
2022-08-08T19:05:44.189Z,24.08
2022-08-08T19:08:25.644Z,24.52
2022-08-08T19:10:59.897Z,24.46
2022-08-08T19:13:52.773Z,24.51
2022-08-08T19:16:23.645Z,24.49
2022-08-08T19:19:02.462Z,24.46
2022-08-08T19:21:48.918Z,24.39
2022-08-08T19:24:42.356Z,24.46
2022-08-08T19:27:07.863Z,24.39
2022-08-08T19:29:42.186Z,24.30
2022-08-08T19:32:12.627Z,24.29
2022-08-08T19:34:42.890Z,24.33
2022-08-08T19:37:16.402Z,24.36
2022-08-08T19:39:46.207Z,24.37
2022-08-08T19:42:19.504Z,24.38
2022-08-08T19:44:50.357Z,24.32
2022-08-08T19:47:24.515Z,24.30
2022-08-08T19:49:59.873Z,24.20
2022-08-08T19:52:37.144Z,24.19
2022-08-08T19:55:11.393Z,24.12
2022-08-08T19:57:42.541Z,24.08
2022-08-08T20:00:30.835Z,24.12
2022-08-08T20:03:01.172Z,24.11
2022-08-08T20:06:13.362Z,23.52
2022-08-08T20:08:29.239Z,24.09
2022-08-08T20:11:00.836Z,24.06
2022-08-08T20:14:12.445Z,24.05
2022-08-08T20:16:18.482Z,24.08
2022-08-08T20:18:52.499Z,24.04
2022-08-08T20:21:25.513Z,24.04
2022-08-08T20:23:58.073Z,24.08
2022-08-08T20:26:33.275Z,23.99
2022-08-08T20:29:03.102Z,23.99
2022-08-08T20:32:02.677Z,23.97
2022-08-08T20:34:28.987Z,23.92
2022-08-08T20:37:00.928Z,23.90
2022-08-08T20:39:34.005Z,23.88
2022-08-08T20:42:10.245Z,23.95
2022-08-08T20:44:38.945Z,23.92
2022-08-08T20:47:23.042Z,23.85
2022-08-08T20:49:54.415Z,23.84
2022-08-08T20:52:28.424Z,23.82
2022-08-08T20:54:58.789Z,23.70
2022-08-08T20:57:28.021Z,23.70
2022-08-08T20:59:56.954Z,23.65
2022-08-08T21:02:28.397Z,23.58
2022-08-08T21:05:01.212Z,23.63
2022-08-08T21:07:47.647Z,23.57
2022-08-08T21:10:21.603Z,23.50
2022-08-08T21:12:56.745Z,23.40
2022-08-08T21:16:04.677Z,23.42
2022-08-08T21:18:17.122Z,23.33
2022-08-08T21:20:49.137Z,23.26
2022-08-08T21:23:19.341Z,23.29
2022-08-08T21:25:55.614Z,23.27
2022-08-08T21:28:35.480Z,23.24
2022-08-08T21:31:23.188Z,23.28
2022-08-08T21:33:52.509Z,23.25
2022-08-08T21:36:28.680Z,23.21
2022-08-08T21:38:57.924Z,23.17
2022-08-08T21:41:38.104Z,23.12
2022-08-08T21:44:12.114Z,23.08
2022-08-08T21:48:05.918Z,23.04
2022-08-08T21:49:31.528Z,23.06
2022-08-08T21:54:31.284Z,23.08
2022-08-08T21:54:54.797Z,22.98
2022-08-08T21:57:42.219Z,22.93
2022-08-08T22:00:15.355Z,22.92
2022-08-08T22:02:55.857Z,22.93
2022-08-08T22:05:25.692Z,22.95
2022-08-08T22:10:32.675Z,22.86
2022-08-08T22:13:17.867Z,22.75
2022-08-08T22:15:59.156Z,22.71
2022-08-08T22:18:31.012Z,22.74
2022-08-08T22:21:10.769Z,22.74
2022-08-08T22:23:51.578Z,22.78
2022-08-08T22:26:29.681Z,22.63
2022-08-08T22:29:57.095Z,22.63
2022-08-08T22:32:01.634Z,22.62
2022-08-08T22:34:32.982Z,22.53
2022-08-08T22:37:01.778Z,22.54
2022-08-08T22:39:45.873Z,22.52
2022-08-08T22:42:27.487Z,22.49
2022-08-08T22:45:05.387Z,21.87
2022-08-08T22:47:48.751Z,22.48
2022-08-08T22:50:27.216Z,22.21
2022-08-08T22:53:24.138Z,22.44
2022-08-08T22:55:58.263Z,22.40
2022-08-08T22:58:31.204Z,22.41
2022-08-08T23:02:00.644Z,22.46
2022-08-08T23:03:56.108Z,22.51
2022-08-08T23:06:25.392Z,22.44
2022-08-08T23:08:54.569Z,22.43
2022-08-08T23:11:30.808Z,22.48
2022-08-08T23:14:16.563Z,22.42
2022-08-08T23:16:57.712Z,22.47
2022-08-08T23:19:30.758Z,22.21
2022-08-08T23:22:04.097Z,22.31
2022-08-08T23:24:36.351Z,22.37
2022-08-08T23:27:06.098Z,22.24
2022-08-08T23:29:34.725Z,22.28
2022-08-08T23:32:07.046Z,22.26
2022-08-08T23:34:39.447Z,22.14
2022-08-08T23:37:24.530Z,22.29
2022-08-08T23:39:55.555Z,22.27
2022-08-08T23:42:26.270Z,22.29
2022-08-08T23:44:57.639Z,22.25
2022-08-08T23:49:06.559Z,22.31
2022-08-08T23:50:30.583Z,22.25
2022-08-08T23:53:05.340Z,22.18
2022-08-08T23:55:42.244Z,22.17
2022-08-08T23:58:37.385Z,22.13
